sensor_id;sensor_type;location;lat;lon;timestamp;P1;durP1;ratioP1;P2;durP2;ratioP2
51578;SDS011;47998;53.242;6.386;2023-04-24T00:02:11;18.20;;;12.60;;
51578;SDS011;47998;53.242;6.386;2023-04-24T00:04:37;19.50;;;13.02;;
51578;SDS011;47998;53.242;6.386;2023-04-24T00:07:06;17.20;;;12.65;;
51578;SDS011;47998;53.242;6.386;2023-04-24T00:09:33;21.73;;;14.55;;
51578;SDS011;47998;53.242;6.386;2023-04-24T00:11:58;17.55;;;12.65;;
51578;SDS011;47998;53.242;6.386;2023-04-24T00:14:24;17.60;;;12.65;;
51578;SDS011;47998;53.242;6.386;2023-04-24T00:16:50;16.75;;;11.98;;
51578;SDS011;47998;53.242;6.386;2023-04-24T00:19:16;13.15;;;10.60;;
51578;SDS011;47998;53.242;6.386;2023-04-24T00:21:42;14.38;;;10.77;;
51578;SDS011;47998;53.242;6.386;2023-04-24T00:24:08;14.50;;;10.68;;
51578;SDS011;47998;53.242;6.386;2023-04-24T00:26:34;12.15;;;10.35;;
51578;SDS011;47998;53.242;6.386;2023-04-24T00:29:00;13.07;;;10.20;;
51578;SDS011;47998;53.242;6.386;2023-04-24T00:31:26;14.82;;;11.38;;
51578;SDS011;47998;53.242;6.386;2023-04-24T00:33:51;17.15;;;12.82;;
51578;SDS011;47998;53.242;6.386;2023-04-24T00:36:17;16.48;;;12.20;;
51578;SDS011;47998;53.242;6.386;2023-04-24T00:38:45;17.50;;;12.13;;
51578;SDS011;47998;53.242;6.386;2023-04-24T00:41:11;16.40;;;12.15;;
51578;SDS011;47998;53.242;6.386;2023-04-24T00:43:37;16.70;;;12.27;;
51578;SDS011;47998;53.242;6.386;2023-04-24T00:46:03;19.02;;;12.48;;
51578;SDS011;47998;53.242;6.386;2023-04-24T00:48:29;15.27;;;10.98;;
51578;SDS011;47998;53.242;6.386;2023-04-24T00:50:55;15.82;;;12.55;;
51578;SDS011;47998;53.242;6.386;2023-04-24T00:53:22;16.38;;;11.32;;
51578;SDS011;47998;53.242;6.386;2023-04-24T00:55:48;17.17;;;11.93;;
51578;SDS011;47998;53.242;6.386;2023-04-24T00:58:14;12.93;;;8.77;;
51578;SDS011;47998;53.242;6.386;2023-04-24T01:00:39;12.50;;;8.20;;
51578;SDS011;47998;53.242;6.386;2023-04-24T01:03:05;7.95;;;6.90;;
51578;SDS011;47998;53.242;6.386;2023-04-24T01:05:32;7.03;;;5.93;;
51578;SDS011;47998;53.242;6.386;2023-04-24T01:07:59;6.82;;;5.10;;
51578;SDS011;47998;53.242;6.386;2023-04-24T01:10:26;5.45;;;4.38;;
51578;SDS011;47998;53.242;6.386;2023-04-24T01:12:54;4.78;;;4.18;;
51578;SDS011;47998;53.242;6.386;2023-04-24T01:15:20;7.03;;;5.28;;
51578;SDS011;47998;53.242;6.386;2023-04-24T01:17:46;4.93;;;4.25;;
51578;SDS011;47998;53.242;6.386;2023-04-24T01:20:12;4.90;;;4.40;;
51578;SDS011;47998;53.242;6.386;2023-04-24T01:22:38;4.32;;;3.35;;
51578;SDS011;47998;53.242;6.386;2023-04-24T01:25:05;4.47;;;3.67;;
51578;SDS011;47998;53.242;6.386;2023-04-24T01:27:31;6.82;;;4.03;;
51578;SDS011;47998;53.242;6.386;2023-04-24T01:29:57;4.55;;;3.97;;
51578;SDS011;47998;53.242;6.386;2023-04-24T01:32:23;6.07;;;3.10;;
51578;SDS011;47998;53.242;6.386;2023-04-24T01:34:49;4.28;;;3.67;;
51578;SDS011;47998;53.242;6.386;2023-04-24T01:37:16;5.65;;;3.72;;
51578;SDS011;47998;53.242;6.386;2023-04-24T01:39:42;3.75;;;3.00;;
51578;SDS011;47998;53.242;6.386;2023-04-24T01:42:08;4.30;;;3.30;;
51578;SDS011;47998;53.242;6.386;2023-04-24T01:44:34;4.82;;;3.92;;
51578;SDS011;47998;53.242;6.386;2023-04-24T01:47:01;4.57;;;3.83;;
51578;SDS011;47998;53.242;6.386;2023-04-24T01:49:27;5.40;;;3.72;;
51578;SDS011;47998;53.242;6.386;2023-04-24T01:51:53;5.93;;;3.70;;
51578;SDS011;47998;53.242;6.386;2023-04-24T01:54:18;4.35;;;3.90;;
51578;SDS011;47998;53.242;6.386;2023-04-24T01:56:44;5.43;;;4.25;;
51578;SDS011;47998;53.242;6.386;2023-04-24T01:59:11;5.70;;;4.53;;
51578;SDS011;47998;53.242;6.386;2023-04-24T02:01:37;7.60;;;4.78;;
51578;SDS011;47998;53.242;6.386;2023-04-24T02:04:04;5.32;;;4.22;;
51578;SDS011;47998;53.242;6.386;2023-04-24T02:06:31;6.40;;;5.07;;
51578;SDS011;47998;53.242;6.386;2023-04-24T02:08:58;5.50;;;4.90;;
51578;SDS011;47998;53.242;6.386;2023-04-24T02:11:24;5.57;;;4.57;;
51578;SDS011;47998;53.242;6.386;2023-04-24T02:13:50;6.55;;;5.38;;
51578;SDS011;47998;53.242;6.386;2023-04-24T02:16:16;5.80;;;4.60;;
51578;SDS011;47998;53.242;6.386;2023-04-24T02:18:42;5.00;;;4.20;;
51578;SDS011;47998;53.242;6.386;2023-04-24T02:21:09;5.22;;;4.72;;
51578;SDS011;47998;53.242;6.386;2023-04-24T02:23:35;5.40;;;4.40;;
51578;SDS011;47998;53.242;6.386;2023-04-24T02:26:00;5.80;;;4.45;;
51578;SDS011;47998;53.242;6.386;2023-04-24T02:28:26;5.65;;;5.00;;
51578;SDS011;47998;53.242;6.386;2023-04-24T02:30:52;6.25;;;5.38;;
51578;SDS011;47998;53.242;6.386;2023-04-24T02:33:18;7.60;;;4.78;;
51578;SDS011;47998;53.242;6.386;2023-04-24T02:35:43;5.85;;;5.25;;
51578;SDS011;47998;53.242;6.386;2023-04-24T02:38:09;6.80;;;5.63;;
51578;SDS011;47998;53.242;6.386;2023-04-24T02:40:35;6.32;;;5.72;;
51578;SDS011;47998;53.242;6.386;2023-04-24T02:43:00;8.95;;;6.60;;
51578;SDS011;47998;53.242;6.386;2023-04-24T02:45:26;7.30;;;6.45;;
51578;SDS011;47998;53.242;6.386;2023-04-24T02:47:52;8.95;;;7.57;;
51578;SDS011;47998;53.242;6.386;2023-04-24T02:50:17;7.35;;;6.65;;
51578;SDS011;47998;53.242;6.386;2023-04-24T02:52:43;10.00;;;7.25;;
51578;SDS011;47998;53.242;6.386;2023-04-24T02:55:09;8.77;;;7.20;;
51578;SDS011;47998;53.242;6.386;2023-04-24T02:57:35;9.68;;;8.65;;
51578;SDS011;47998;53.242;6.386;2023-04-24T03:00:00;10.32;;;9.23;;
51578;SDS011;47998;53.242;6.386;2023-04-24T03:02:26;10.00;;;8.80;;
51578;SDS011;47998;53.242;6.386;2023-04-24T03:04:52;10.38;;;9.00;;
51578;SDS011;47998;53.242;6.386;2023-04-24T03:07:17;10.43;;;9.32;;
51578;SDS011;47998;53.242;6.386;2023-04-24T03:09:45;12.07;;;10.10;;
51578;SDS011;47998;53.242;6.386;2023-04-24T03:12:12;10.48;;;8.35;;
51578;SDS011;47998;53.242;6.386;2023-04-24T03:14:38;10.85;;;9.55;;
51578;SDS011;47998;53.242;6.386;2023-04-24T03:17:03;13.20;;;10.93;;
51578;SDS011;47998;53.242;6.386;2023-04-24T03:19:29;12.35;;;10.43;;
51578;SDS011;47998;53.242;6.386;2023-04-24T03:21:55;12.10;;;8.80;;
51578;SDS011;47998;53.242;6.386;2023-04-24T03:24:21;13.50;;;11.05;;
51578;SDS011;47998;53.242;6.386;2023-04-24T03:26:47;15.52;;;11.98;;
51578;SDS011;47998;53.242;6.386;2023-04-24T03:29:13;15.82;;;11.95;;
51578;SDS011;47998;53.242;6.386;2023-04-24T03:31:38;13.82;;;11.50;;
51578;SDS011;47998;53.242;6.386;2023-04-24T03:34:04;17.05;;;12.73;;
51578;SDS011;47998;53.242;6.386;2023-04-24T03:36:30;16.25;;;12.30;;
51578;SDS011;47998;53.242;6.386;2023-04-24T03:38:56;15.57;;;12.60;;
51578;SDS011;47998;53.242;6.386;2023-04-24T03:41:22;18.02;;;12.57;;
51578;SDS011;47998;53.242;6.386;2023-04-24T03:43:48;15.95;;;13.18;;
51578;SDS011;47998;53.242;6.386;2023-04-24T03:46:13;18.48;;;14.30;;
51578;SDS011;47998;53.242;6.386;2023-04-24T03:48:40;19.90;;;14.05;;
51578;SDS011;47998;53.242;6.386;2023-04-24T03:51:05;19.63;;;15.00;;
51578;SDS011;47998;53.242;6.386;2023-04-24T03:53:31;18.88;;;13.95;;
51578;SDS011;47998;53.242;6.386;2023-04-24T03:55:57;21.95;;;14.80;;
51578;SDS011;47998;53.242;6.386;2023-04-24T03:58:23;23.10;;;15.45;;
51578;SDS011;47998;53.242;6.386;2023-04-24T04:00:48;22.70;;;16.77;;
51578;SDS011;47998;53.242;6.386;2023-04-24T04:03:14;19.70;;;16.17;;
51578;SDS011;47998;53.242;6.386;2023-04-24T04:05:41;25.50;;;15.57;;
51578;SDS011;47998;53.242;6.386;2023-04-24T04:08:07;22.23;;;16.83;;
51578;SDS011;47998;53.242;6.386;2023-04-24T04:10:32;20.30;;;14.50;;
51578;SDS011;47998;53.242;6.386;2023-04-24T04:12:58;25.52;;;17.25;;
51578;SDS011;47998;53.242;6.386;2023-04-24T04:15:24;28.63;;;17.85;;
51578;SDS011;47998;53.242;6.386;2023-04-24T04:17:49;23.83;;;17.70;;
51578;SDS011;47998;53.242;6.386;2023-04-24T04:20:15;22.45;;;17.15;;
51578;SDS011;47998;53.242;6.386;2023-04-24T04:22:41;18.05;;;11.57;;
51578;SDS011;47998;53.242;6.386;2023-04-24T04:25:07;16.67;;;10.55;;
51578;SDS011;47998;53.242;6.386;2023-04-24T04:27:33;14.65;;;9.32;;
51578;SDS011;47998;53.242;6.386;2023-04-24T04:29:59;13.77;;;9.27;;
51578;SDS011;47998;53.242;6.386;2023-04-24T04:32:33;8.95;;;6.18;;
51578;SDS011;47998;53.242;6.386;2023-04-24T04:35:02;9.07;;;6.35;;
51578;SDS011;47998;53.242;6.386;2023-04-24T04:37:32;7.30;;;4.38;;
51578;SDS011;47998;53.242;6.386;2023-04-24T04:39:58;6.03;;;4.30;;
51578;SDS011;47998;53.242;6.386;2023-04-24T04:42:27;9.10;;;5.47;;
51578;SDS011;47998;53.242;6.386;2023-04-24T04:44:54;6.88;;;5.22;;
51578;SDS011;47998;53.242;6.386;2023-04-24T04:47:21;8.43;;;5.30;;
51578;SDS011;47998;53.242;6.386;2023-04-24T04:49:48;6.88;;;4.82;;
51578;SDS011;47998;53.242;6.386;2023-04-24T04:52:14;7.82;;;5.70;;
51578;SDS011;47998;53.242;6.386;2023-04-24T04:54:41;8.43;;;4.85;;
51578;SDS011;47998;53.242;6.386;2023-04-24T04:57:07;9.95;;;5.43;;
51578;SDS011;47998;53.242;6.386;2023-04-24T04:59:33;6.30;;;4.93;;
51578;SDS011;47998;53.242;6.386;2023-04-24T05:01:58;9.70;;;5.70;;
51578;SDS011;47998;53.242;6.386;2023-04-24T05:04:24;6.22;;;4.65;;
51578;SDS011;47998;53.242;6.386;2023-04-24T05:06:51;5.60;;;4.35;;
51578;SDS011;47998;53.242;6.386;2023-04-24T05:09:17;7.47;;;4.32;;
51578;SDS011;47998;53.242;6.386;2023-04-24T05:11:43;8.00;;;4.55;;
51578;SDS011;47998;53.242;6.386;2023-04-24T05:14:09;11.63;;;6.55;;
51578;SDS011;47998;53.242;6.386;2023-04-24T05:16:35;7.95;;;5.38;;
51578;SDS011;47998;53.242;6.386;2023-04-24T05:19:02;7.15;;;4.03;;
51578;SDS011;47998;53.242;6.386;2023-04-24T05:21:28;8.88;;;5.07;;
51578;SDS011;47998;53.242;6.386;2023-04-24T05:23:54;5.70;;;4.00;;
51578;SDS011;47998;53.242;6.386;2023-04-24T05:26:20;6.25;;;4.10;;
51578;SDS011;47998;53.242;6.386;2023-04-24T05:28:45;6.68;;;4.28;;
51578;SDS011;47998;53.242;6.386;2023-04-24T05:31:11;6.05;;;4.35;;
51578;SDS011;47998;53.242;6.386;2023-04-24T05:33:37;5.43;;;4.28;;
51578;SDS011;47998;53.242;6.386;2023-04-24T05:36:03;7.20;;;4.47;;
51578;SDS011;47998;53.242;6.386;2023-04-24T05:38:30;10.30;;;6.30;;
51578;SDS011;47998;53.242;6.386;2023-04-24T05:40:56;11.98;;;6.20;;
51578;SDS011;47998;53.242;6.386;2023-04-24T05:43:21;9.48;;;7.28;;
51578;SDS011;47998;53.242;6.386;2023-04-24T05:45:47;12.43;;;7.47;;
51578;SDS011;47998;53.242;6.386;2023-04-24T05:48:13;10.05;;;6.25;;
51578;SDS011;47998;53.242;6.386;2023-04-24T05:50:39;10.98;;;7.60;;
51578;SDS011;47998;53.242;6.386;2023-04-24T05:53:05;11.90;;;7.70;;
51578;SDS011;47998;53.242;6.386;2023-04-24T05:55:32;11.65;;;6.32;;
51578;SDS011;47998;53.242;6.386;2023-04-24T05:57:58;10.05;;;4.97;;
51578;SDS011;47998;53.242;6.386;2023-04-24T06:00:24;9.30;;;5.60;;
51578;SDS011;47998;53.242;6.386;2023-04-24T06:02:50;12.15;;;6.90;;
51578;SDS011;47998;53.242;6.386;2023-04-24T06:05:17;10.20;;;7.57;;
51578;SDS011;47998;53.242;6.386;2023-04-24T06:07:44;16.25;;;9.90;;
51578;SDS011;47998;53.242;6.386;2023-04-24T06:10:10;17.23;;;11.45;;
51578;SDS011;47998;53.242;6.386;2023-04-24T06:12:35;18.40;;;11.85;;
51578;SDS011;47998;53.242;6.386;2023-04-24T06:15:02;11.15;;;9.10;;
51578;SDS011;47998;53.242;6.386;2023-04-24T06:17:28;11.55;;;8.45;;
51578;SDS011;47998;53.242;6.386;2023-04-24T06:19:55;11.05;;;7.78;;
51578;SDS011;47998;53.242;6.386;2023-04-24T06:22:21;8.85;;;7.32;;
51578;SDS011;47998;53.242;6.386;2023-04-24T06:24:46;12.15;;;7.57;;
51578;SDS011;47998;53.242;6.386;2023-04-24T06:27:13;11.57;;;7.93;;
51578;SDS011;47998;53.242;6.386;2023-04-24T06:29:39;8.18;;;6.55;;
51578;SDS011;47998;53.242;6.386;2023-04-24T06:32:05;11.27;;;6.90;;
51578;SDS011;47998;53.242;6.386;2023-04-24T06:34:31;11.15;;;6.55;;
51578;SDS011;47998;53.242;6.386;2023-04-24T06:36:58;6.13;;;3.80;;
51578;SDS011;47998;53.242;6.386;2023-04-24T06:39:24;5.95;;;3.90;;
51578;SDS011;47998;53.242;6.386;2023-04-24T06:41:50;5.28;;;2.95;;
51578;SDS011;47998;53.242;6.386;2023-04-24T06:44:16;2.75;;;2.00;;
51578;SDS011;47998;53.242;6.386;2023-04-24T06:46:42;5.35;;;2.40;;
51578;SDS011;47998;53.242;6.386;2023-04-24T06:49:07;4.63;;;2.50;;
51578;SDS011;47998;53.242;6.386;2023-04-24T06:51:33;4.97;;;2.50;;
51578;SDS011;47998;53.242;6.386;2023-04-24T06:53:59;6.32;;;2.38;;
51578;SDS011;47998;53.242;6.386;2023-04-24T06:56:25;6.85;;;2.30;;
51578;SDS011;47998;53.242;6.386;2023-04-24T06:58:51;5.18;;;2.90;;
51578;SDS011;47998;53.242;6.386;2023-04-24T07:01:17;11.27;;;3.63;;
51578;SDS011;47998;53.242;6.386;2023-04-24T07:03:43;6.35;;;2.67;;
51578;SDS011;47998;53.242;6.386;2023-04-24T07:06:09;6.95;;;2.47;;
51578;SDS011;47998;53.242;6.386;2023-04-24T07:08:36;6.28;;;3.40;;
51578;SDS011;47998;53.242;6.386;2023-04-24T07:11:02;5.75;;;3.40;;
51578;SDS011;47998;53.242;6.386;2023-04-24T07:13:28;7.38;;;3.30;;
51578;SDS011;47998;53.242;6.386;2023-04-24T07:15:53;6.43;;;2.75;;
51578;SDS011;47998;53.242;6.386;2023-04-24T07:18:21;5.15;;;2.22;;
51578;SDS011;47998;53.242;6.386;2023-04-24T07:20:47;4.75;;;2.30;;
51578;SDS011;47998;53.242;6.386;2023-04-24T07:23:15;6.22;;;2.05;;
51578;SDS011;47998;53.242;6.386;2023-04-24T07:25:41;5.85;;;1.75;;
51578;SDS011;47998;53.242;6.386;2023-04-24T07:28:07;8.70;;;2.15;;
51578;SDS011;47998;53.242;6.386;2023-04-24T07:30:33;8.13;;;2.50;;
51578;SDS011;47998;53.242;6.386;2023-04-24T07:32:59;7.10;;;3.50;;
51578;SDS011;47998;53.242;6.386;2023-04-24T07:35:28;10.07;;;4.38;;
51578;SDS011;47998;53.242;6.386;2023-04-24T07:37:53;11.73;;;5.95;;
51578;SDS011;47998;53.242;6.386;2023-04-24T07:40:20;13.68;;;7.68;;
51578;SDS011;47998;53.242;6.386;2023-04-24T07:42:46;16.35;;;9.75;;
51578;SDS011;47998;53.242;6.386;2023-04-24T07:45:13;16.63;;;10.70;;
51578;SDS011;47998;53.242;6.386;2023-04-24T07:47:41;17.63;;;10.32;;
51578;SDS011;47998;53.242;6.386;2023-04-24T07:50:09;19.40;;;12.98;;
51578;SDS011;47998;53.242;6.386;2023-04-24T07:52:35;19.13;;;12.18;;
51578;SDS011;47998;53.242;6.386;2023-04-24T07:55:01;27.65;;;17.15;;
51578;SDS011;47998;53.242;6.386;2023-04-24T07:57:27;34.15;;;18.42;;
51578;SDS011;47998;53.242;6.386;2023-04-24T07:59:54;30.40;;;16.75;;
51578;SDS011;47998;53.242;6.386;2023-04-24T08:02:20;28.90;;;16.83;;
51578;SDS011;47998;53.242;6.386;2023-04-24T08:04:51;38.60;;;20.20;;
51578;SDS011;47998;53.242;6.386;2023-04-24T08:07:18;33.78;;;17.55;;
51578;SDS011;47998;53.242;6.386;2023-04-24T08:09:45;28.67;;;19.45;;
51578;SDS011;47998;53.242;6.386;2023-04-24T08:12:10;30.20;;;17.42;;
51578;SDS011;47998;53.242;6.386;2023-04-24T08:14:36;21.60;;;13.30;;
51578;SDS011;47998;53.242;6.386;2023-04-24T08:17:02;22.23;;;13.10;;
51578;SDS011;47998;53.242;6.386;2023-04-24T08:19:28;27.58;;;14.90;;
51578;SDS011;47998;53.242;6.386;2023-04-24T08:21:54;28.50;;;16.73;;
51578;SDS011;47998;53.242;6.386;2023-04-24T08:24:20;29.13;;;13.57;;
51578;SDS011;47998;53.242;6.386;2023-04-24T08:26:46;20.50;;;11.70;;
51578;SDS011;47998;53.242;6.386;2023-04-24T08:29:15;20.13;;;12.82;;
51578;SDS011;47998;53.242;6.386;2023-04-24T08:31:41;28.90;;;13.55;;
51578;SDS011;47998;53.242;6.386;2023-04-24T08:34:07;23.35;;;12.98;;
51578;SDS011;47998;53.242;6.386;2023-04-24T08:36:34;19.92;;;13.15;;
51578;SDS011;47998;53.242;6.386;2023-04-24T08:39:00;18.33;;;11.50;;
51578;SDS011;47998;53.242;6.386;2023-04-24T08:41:26;24.38;;;11.65;;
51578;SDS011;47998;53.242;6.386;2023-04-24T08:43:52;19.02;;;11.85;;
51578;SDS011;47998;53.242;6.386;2023-04-24T08:46:20;28.08;;;12.77;;
51578;SDS011;47998;53.242;6.386;2023-04-24T08:48:46;18.30;;;11.23;;
51578;SDS011;47998;53.242;6.386;2023-04-24T08:51:14;19.48;;;10.23;;
51578;SDS011;47998;53.242;6.386;2023-04-24T08:53:40;21.42;;;11.27;;
51578;SDS011;47998;53.242;6.386;2023-04-24T08:56:06;25.73;;;8.43;;
51578;SDS011;47998;53.242;6.386;2023-04-24T08:58:32;11.35;;;7.47;;
51578;SDS011;47998;53.242;6.386;2023-04-24T09:00:58;14.00;;;7.47;;
51578;SDS011;47998;53.242;6.386;2023-04-24T09:03:26;13.52;;;5.97;;
51578;SDS011;47998;53.242;6.386;2023-04-24T09:05:53;11.38;;;6.80;;
51578;SDS011;47998;53.242;6.386;2023-04-24T09:08:20;10.48;;;6.75;;
51578;SDS011;47998;53.242;6.386;2023-04-24T09:10:50;13.52;;;7.22;;
51578;SDS011;47998;53.242;6.386;2023-04-24T09:13:15;15.30;;;7.85;;
51578;SDS011;47998;53.242;6.386;2023-04-24T09:15:42;11.80;;;6.50;;
51578;SDS011;47998;53.242;6.386;2023-04-24T09:18:07;11.95;;;6.63;;
51578;SDS011;47998;53.242;6.386;2023-04-24T09:20:33;13.73;;;6.10;;
51578;SDS011;47998;53.242;6.386;2023-04-24T09:23:01;9.85;;;6.35;;
51578;SDS011;47998;53.242;6.386;2023-04-24T09:25:33;11.93;;;6.47;;
51578;SDS011;47998;53.242;6.386;2023-04-24T09:28:03;14.10;;;7.53;;
51578;SDS011;47998;53.242;6.386;2023-04-24T09:30:30;15.85;;;7.25;;
51578;SDS011;47998;53.242;6.386;2023-04-24T09:33:15;17.83;;;6.57;;
51578;SDS011;47998;53.242;6.386;2023-04-24T09:35:50;17.67;;;6.03;;
51578;SDS011;47998;53.242;6.386;2023-04-24T09:38:17;18.25;;;6.13;;
51578;SDS011;47998;53.242;6.386;2023-04-24T09:40:43;15.15;;;5.85;;
51578;SDS011;47998;53.242;6.386;2023-04-24T09:43:11;12.82;;;5.20;;
51578;SDS011;47998;53.242;6.386;2023-04-24T09:45:38;11.65;;;5.07;;
51578;SDS011;47998;53.242;6.386;2023-04-24T09:48:05;9.27;;;4.45;;
51578;SDS011;47998;53.242;6.386;2023-04-24T09:50:35;9.85;;;4.22;;
51578;SDS011;47998;53.242;6.386;2023-04-24T09:53:02;11.40;;;4.38;;
51578;SDS011;47998;53.242;6.386;2023-04-24T09:55:29;7.15;;;3.33;;
51578;SDS011;47998;53.242;6.386;2023-04-24T09:57:56;13.05;;;3.80;;
51578;SDS011;47998;53.242;6.386;2023-04-24T10:00:29;6.47;;;2.50;;
51578;SDS011;47998;53.242;6.386;2023-04-24T10:03:00;9.32;;;2.78;;
51578;SDS011;47998;53.242;6.386;2023-04-24T10:05:27;9.98;;;3.00;;
51578;SDS011;47998;53.242;6.386;2023-04-24T10:08:04;11.80;;;2.72;;
51578;SDS011;47998;53.242;6.386;2023-04-24T10:10:31;8.85;;;2.60;;
51578;SDS011;47998;53.242;6.386;2023-04-24T10:12:59;6.72;;;2.65;;
51578;SDS011;47998;53.242;6.386;2023-04-24T10:15:26;11.60;;;3.20;;
51578;SDS011;47998;53.242;6.386;2023-04-24T10:17:52;10.02;;;3.00;;
51578;SDS011;47998;53.242;6.386;2023-04-24T10:20:22;10.30;;;3.00;;
51578;SDS011;47998;53.242;6.386;2023-04-24T10:22:50;6.60;;;2.42;;
51578;SDS011;47998;53.242;6.386;2023-04-24T10:25:21;13.10;;;2.78;;
51578;SDS011;47998;53.242;6.386;2023-04-24T10:27:49;8.10;;;2.28;;
51578;SDS011;47998;53.242;6.386;2023-04-24T10:30:16;9.63;;;2.10;;
51578;SDS011;47998;53.242;6.386;2023-04-24T10:32:43;12.15;;;2.67;;
51578;SDS011;47998;53.242;6.386;2023-04-24T10:35:10;6.10;;;2.25;;
51578;SDS011;47998;53.242;6.386;2023-04-24T10:37:45;8.45;;;2.13;;
51578;SDS011;47998;53.242;6.386;2023-04-24T10:40:17;7.43;;;2.97;;
51578;SDS011;47998;53.242;6.386;2023-04-24T10:42:46;9.20;;;2.97;;
51578;SDS011;47998;53.242;6.386;2023-04-24T10:45:19;7.03;;;2.15;;
51578;SDS011;47998;53.242;6.386;2023-04-24T10:50:24;4.90;;;2.15;;
51578;SDS011;47998;53.242;6.386;2023-04-24T10:52:51;8.60;;;2.20;;
51578;SDS011;47998;53.242;6.386;2023-04-24T10:55:39;9.60;;;2.15;;
51578;SDS011;47998;53.242;6.386;2023-04-24T10:58:15;11.35;;;2.55;;
51578;SDS011;47998;53.242;6.386;2023-04-24T11:00:43;5.13;;;1.52;;
51578;SDS011;47998;53.242;6.386;2023-04-24T11:03:31;8.63;;;1.65;;
51578;SDS011;47998;53.242;6.386;2023-04-24T11:08:30;11.77;;;1.50;;
51578;SDS011;47998;53.242;6.386;2023-04-24T11:10:59;11.88;;;2.40;;
51578;SDS011;47998;53.242;6.386;2023-04-24T11:14:14;10.57;;;1.98;;
51578;SDS011;47998;53.242;6.386;2023-04-24T11:16:25;8.90;;;1.42;;
51578;SDS011;47998;53.242;6.386;2023-04-24T11:19:36;5.28;;;1.42;;
51578;SDS011;47998;53.242;6.386;2023-04-24T11:21:45;7.63;;;2.47;;
51578;SDS011;47998;53.242;6.386;2023-04-24T11:27:17;7.25;;;1.38;;
51578;SDS011;47998;53.242;6.386;2023-04-24T11:29:49;9.48;;;2.08;;
51578;SDS011;47998;53.242;6.386;2023-04-24T11:37:40;6.85;;;1.90;;
51578;SDS011;47998;53.242;6.386;2023-04-24T11:40:07;6.57;;;1.27;;
51578;SDS011;47998;53.242;6.386;2023-04-24T11:42:35;3.83;;;1.30;;
51578;SDS011;47998;53.242;6.386;2023-04-24T11:45:02;6.63;;;1.60;;
51578;SDS011;47998;53.242;6.386;2023-04-24T11:47:43;9.50;;;2.28;;
51578;SDS011;47998;53.242;6.386;2023-04-24T11:50:13;4.22;;;1.27;;
51578;SDS011;47998;53.242;6.386;2023-04-24T11:52:40;6.82;;;1.40;;
51578;SDS011;47998;53.242;6.386;2023-04-24T11:55:12;4.20;;;1.20;;
51578;SDS011;47998;53.242;6.386;2023-04-24T11:57:52;8.27;;;1.65;;
51578;SDS011;47998;53.242;6.386;2023-04-24T12:00:25;3.17;;;0.80;;
51578;SDS011;47998;53.242;6.386;2023-04-24T12:03:03;5.50;;;1.23;;
51578;SDS011;47998;53.242;6.386;2023-04-24T12:05:38;4.20;;;1.00;;
51578;SDS011;47998;53.242;6.386;2023-04-24T12:08:04;3.50;;;0.90;;
51578;SDS011;47998;53.242;6.386;2023-04-24T12:10:31;3.80;;;0.73;;
51578;SDS011;47998;53.242;6.386;2023-04-24T12:12:58;6.40;;;1.27;;
51578;SDS011;47998;53.242;6.386;2023-04-24T12:15:25;3.97;;;0.80;;
51578;SDS011;47998;53.242;6.386;2023-04-24T12:17:51;4.68;;;0.95;;
51578;SDS011;47998;53.242;6.386;2023-04-24T12:20:23;3.10;;;0.65;;
51578;SDS011;47998;53.242;6.386;2023-04-24T12:25:42;4.32;;;0.75;;
51578;SDS011;47998;53.242;6.386;2023-04-24T12:28:12;2.58;;;0.50;;
51578;SDS011;47998;53.242;6.386;2023-04-24T12:30:44;3.30;;;0.80;;
51578;SDS011;47998;53.242;6.386;2023-04-24T12:33:19;2.95;;;0.63;;
51578;SDS011;47998;53.242;6.386;2023-04-24T12:35:46;4.30;;;0.83;;
51578;SDS011;47998;53.242;6.386;2023-04-24T12:38:13;3.00;;;0.50;;
51578;SDS011;47998;53.242;6.386;2023-04-24T12:40:40;7.25;;;1.15;;
51578;SDS011;47998;53.242;6.386;2023-04-24T12:45:40;5.15;;;1.77;;
51578;SDS011;47998;53.242;6.386;2023-04-24T12:48:06;8.18;;;1.13;;
51578;SDS011;47998;53.242;6.386;2023-04-24T12:50:31;8.00;;;1.45;;
51578;SDS011;47998;53.242;6.386;2023-04-24T12:52:57;3.40;;;0.73;;
51578;SDS011;47998;53.242;6.386;2023-04-24T12:55:23;11.45;;;1.48;;
51578;SDS011;47998;53.242;6.386;2023-04-24T12:57:48;5.38;;;0.77;;
51578;SDS011;47998;53.242;6.386;2023-04-24T13:00:14;9.10;;;1.30;;
51578;SDS011;47998;53.242;6.386;2023-04-24T13:02:40;6.47;;;0.80;;
51578;SDS011;47998;53.242;6.386;2023-04-24T13:05:06;6.35;;;0.73;;
51578;SDS011;47998;53.242;6.386;2023-04-24T13:07:32;6.32;;;1.00;;
51578;SDS011;47998;53.242;6.386;2023-04-24T13:09:58;4.07;;;0.70;;
51578;SDS011;47998;53.242;6.386;2023-04-24T13:12:24;2.20;;;0.60;;
51578;SDS011;47998;53.242;6.386;2023-04-24T13:14:50;6.63;;;1.02;;
51578;SDS011;47998;53.242;6.386;2023-04-24T13:17:16;2.83;;;0.43;;
51578;SDS011;47998;53.242;6.386;2023-04-24T13:19:42;3.83;;;1.05;;
51578;SDS011;47998;53.242;6.386;2023-04-24T13:22:09;4.82;;;0.50;;
51578;SDS011;47998;53.242;6.386;2023-04-24T13:24:36;2.40;;;0.75;;
51578;SDS011;47998;53.242;6.386;2023-04-24T13:27:03;6.03;;;0.52;;
51578;SDS011;47998;53.242;6.386;2023-04-24T13:29:29;0.80;;;0.15;;
51578;SDS011;47998;53.242;6.386;2023-04-24T13:31:55;3.97;;;1.15;;
51578;SDS011;47998;53.242;6.386;2023-04-24T13:34:21;1.80;;;0.45;;
51578;SDS011;47998;53.242;6.386;2023-04-24T13:36:52;5.88;;;0.50;;
51578;SDS011;47998;53.242;6.386;2023-04-24T13:39:18;3.83;;;0.65;;
51578;SDS011;47998;53.242;6.386;2023-04-24T13:41:45;3.97;;;0.75;;
51578;SDS011;47998;53.242;6.386;2023-04-24T13:44:13;5.50;;;0.57;;
51578;SDS011;47998;53.242;6.386;2023-04-24T13:46:43;6.68;;;1.00;;
51578;SDS011;47998;53.242;6.386;2023-04-24T13:49:11;3.83;;;1.15;;
51578;SDS011;47998;53.242;6.386;2023-04-24T13:51:37;2.97;;;0.88;;
51578;SDS011;47998;53.242;6.386;2023-04-24T13:54:03;3.00;;;1.15;;
51578;SDS011;47998;53.242;6.386;2023-04-24T13:56:29;2.50;;;0.70;;
51578;SDS011;47998;53.242;6.386;2023-04-24T13:58:55;5.70;;;1.08;;
51578;SDS011;47998;53.242;6.386;2023-04-24T14:01:21;9.80;;;1.85;;
51578;SDS011;47998;53.242;6.386;2023-04-24T14:03:53;8.35;;;1.73;;
51578;SDS011;47998;53.242;6.386;2023-04-24T14:06:19;11.07;;;3.50;;
51578;SDS011;47998;53.242;6.386;2023-04-24T14:08:45;9.38;;;2.65;;
51578;SDS011;47998;53.242;6.386;2023-04-24T14:11:11;7.70;;;1.67;;
51578;SDS011;47998;53.242;6.386;2023-04-24T14:13:37;12.27;;;2.60;;
51578;SDS011;47998;53.242;6.386;2023-04-24T14:16:04;7.57;;;2.15;;
51578;SDS011;47998;53.242;6.386;2023-04-24T14:18:30;10.80;;;2.47;;
51578;SDS011;47998;53.242;6.386;2023-04-24T14:20:56;6.50;;;1.95;;
51578;SDS011;47998;53.242;6.386;2023-04-24T14:23:21;8.07;;;2.05;;
51578;SDS011;47998;53.242;6.386;2023-04-24T14:25:47;10.55;;;2.00;;
51578;SDS011;47998;53.242;6.386;2023-04-24T14:28:16;9.07;;;2.55;;
51578;SDS011;47998;53.242;6.386;2023-04-24T14:30:43;8.48;;;1.55;;
51578;SDS011;47998;53.242;6.386;2023-04-24T14:33:08;5.20;;;1.92;;
51578;SDS011;47998;53.242;6.386;2023-04-24T14:35:34;6.55;;;2.05;;
51578;SDS011;47998;53.242;6.386;2023-04-24T14:38:00;7.55;;;2.03;;
51578;SDS011;47998;53.242;6.386;2023-04-24T14:40:26;5.40;;;1.70;;
51578;SDS011;47998;53.242;6.386;2023-04-24T14:42:52;8.05;;;1.92;;
51578;SDS011;47998;53.242;6.386;2023-04-24T14:45:18;1.70;;;0.75;;
51578;SDS011;47998;53.242;6.386;2023-04-24T14:47:44;9.95;;;2.88;;
51578;SDS011;47998;53.242;6.386;2023-04-24T14:50:10;8.30;;;2.47;;
51578;SDS011;47998;53.242;6.386;2023-04-24T14:52:37;7.00;;;1.85;;
51578;SDS011;47998;53.242;6.386;2023-04-24T14:55:03;13.15;;;2.67;;
51578;SDS011;47998;53.242;6.386;2023-04-24T14:57:29;13.65;;;2.72;;